Terminal Aerodrome Forecast
Issued by NWS

Home | Current Version | Previous Version | Text Only | Print | Product List | Glossary On
Versions: 1 2 3 4 5 6 7 8 9 10 11 12 13 14 15 16 17 18 19
000
FTAK31 PANC 181150
TAFAIL
TAF
PAIL 181150Z 1812/1912 33007KT P6SM SKC
     FM182300 09010KT P6SM BKN035 OVC080
     FM190700 11015G25KT 6SM -SNRA BKN030 OVC050=

USA.gov is the U.S. government's official web portal to all federal, state and local government web resources and services.